createdAt,value
2022-10-04T00:02:12.046Z,101468.63
2022-10-04T00:05:06.035Z,101463.63
2022-10-04T00:07:49.308Z,101462.06
2022-10-04T00:10:27.401Z,101460.34
2022-10-04T00:13:18.168Z,101470.16
2022-10-04T00:15:51.701Z,101463.63
2022-10-04T00:18:40.662Z,101467.59
2022-10-04T00:21:09.895Z,101454.66
2022-10-04T00:23:36.431Z,101458.59
2022-10-04T00:26:35.437Z,101458.41
2022-10-04T00:29:37.964Z,101451.00
2022-10-04T00:32:10.864Z,101449.66
2022-10-04T00:34:53.315Z,101452.88
2022-10-04T00:37:23.666Z,101445.84
2022-10-04T00:40:16.867Z,101449.84
2022-10-04T00:43:16.137Z,101442.03
2022-10-04T00:46:05.947Z,101440.41
2022-10-04T00:48:53.030Z,101435.00
2022-10-04T00:51:59.313Z,101431.03
2022-10-04T00:54:41.802Z,101436.03
2022-10-04T00:57:22.542Z,101431.97
2022-10-04T01:00:03.835Z,101425.75
2022-10-04T01:02:45.450Z,101432.66
2022-10-04T01:05:37.249Z,101431.38
2022-10-04T01:08:18.889Z,101428.94
2022-10-04T01:10:56.789Z,101430.84
2022-10-04T01:13:31.204Z,101429.22
2022-10-04T01:16:16.642Z,101424.16
2022-10-04T01:18:44.165Z,101412.25
2022-10-04T01:21:16.886Z,101420.66
2022-10-04T01:23:57.983Z,101414.84
2022-10-04T01:26:30.455Z,101416.03
2022-10-04T01:29:01.677Z,101411.63
2022-10-04T01:31:36.784Z,101408.81
2022-10-04T01:34:06.466Z,101410.38
2022-10-04T01:36:36.207Z,101405.53
2022-10-04T01:39:05.750Z,101400.44
2022-10-04T01:42:15.872Z,101397.44
2022-10-04T01:45:21.400Z,101395.75
2022-10-04T01:48:02.003Z,101392.22
2022-10-04T01:50:47.211Z,101385.94
2022-10-04T01:53:40.642Z,101393.78
2022-10-04T01:56:26.330Z,101388.09
2022-10-04T01:59:03.136Z,101381.75
2022-10-04T02:02:18.547Z,101382.31
2022-10-04T02:04:57.362Z,101377.63
2022-10-04T02:07:30.265Z,101378.34
2022-10-04T02:10:04.798Z,101366.84
2022-10-04T02:12:34.892Z,101371.94
2022-10-04T02:15:09.624Z,101367.56
2022-10-04T02:17:43.964Z,101371.94
2022-10-04T02:20:19.892Z,101371.09
2022-10-04T02:22:56.675Z,101374.66
2022-10-04T02:25:23.844Z,101371.94
2022-10-04T02:27:53.961Z,101369.25
2022-10-04T02:30:22.555Z,101376.50
2022-10-04T02:33:00.517Z,101371.69
2022-10-04T02:35:35.742Z,101366.00
2022-10-04T02:38:13.214Z,101368.72
2022-10-04T02:40:57.207Z,101365.03
2022-10-04T02:43:52.011Z,101357.91
2022-10-04T02:46:29.369Z,101364.88
2022-10-04T02:49:10.203Z,101354.09
2022-10-04T02:51:36.759Z,101344.88
2022-10-04T02:54:35.627Z,101351.88
2022-10-04T02:57:03.259Z,101346.31
2022-10-04T02:59:35.543Z,101351.72
2022-10-04T03:02:28.661Z,101344.47
2022-10-04T03:05:11.488Z,101339.06
2022-10-04T03:07:40.732Z,101339.94
2022-10-04T03:10:13.607Z,101342.66
2022-10-04T03:12:41.743Z,101339.22
2022-10-04T03:15:13.077Z,101337.38
2022-10-04T03:17:44.580Z,101334.81
2022-10-04T03:20:21.077Z,101342.66
2022-10-04T03:22:55.649Z,101332.84
2022-10-04T03:25:35.744Z,101333.69
2022-10-04T03:28:03.509Z,101340.94
2022-10-04T03:30:32.352Z,101333.56
2022-10-04T03:33:00.364Z,101331.84
2022-10-04T03:35:37.208Z,101339.94
2022-10-04T03:38:12.469Z,101337.25
2022-10-04T03:40:53.338Z,101339.94
2022-10-04T03:43:28.222Z,101336.25
2022-10-04T03:45:58.089Z,101335.13
2022-10-04T03:48:39.296Z,101330.56
2022-10-04T03:51:18.726Z,101337.56
2022-10-04T03:53:53.404Z,101333.13
2022-10-04T03:56:36.690Z,101324.06
2022-10-04T03:59:07.416Z,101326.59
2022-10-04T04:02:04.230Z,101329.16
2022-10-04T04:05:00.274Z,101328.88
2022-10-04T04:07:46.622Z,101326.19
2022-10-04T04:10:30.400Z,101329.59
2022-10-04T04:13:16.289Z,101337.44
2022-10-04T04:15:45.484Z,101332.88
2022-10-04T04:18:33.044Z,101329.16
2022-10-04T04:21:05.122Z,101327.19
2022-10-04T04:23:53.883Z,101329.03
2022-10-04T04:26:49.175Z,101323.63
2022-10-04T04:32:46.439Z,101311.16
2022-10-04T04:35:33.159Z,101300.19
2022-10-04T04:54:38.796Z,101315.25
2022-10-04T04:57:06.292Z,101316.13
2022-10-04T04:59:33.098Z,101321.66
2022-10-04T05:02:03.987Z,101321.94
2022-10-04T05:07:27.498Z,101322.38
2022-10-04T05:09:54.117Z,101329.59
2022-10-04T05:15:13.016Z,101320.66
2022-10-04T05:37:23.101Z,101307.16
2022-10-04T05:40:15.264Z,101300.91
2022-10-04T05:56:59.198Z,101311.28
2022-10-04T06:20:18.926Z,101294.66
2022-10-04T07:08:59.684Z,101305.75
2022-10-04T07:11:43.571Z,101314.28
2022-10-04T07:14:24.375Z,101317.25
2022-10-04T07:17:05.123Z,101315.53
2022-10-04T07:19:47.967Z,101324.63
2022-10-04T07:22:34.693Z,101320.66
2022-10-04T07:25:48.847Z,101322.63
2022-10-04T07:28:52.950Z,101324.63
2022-10-04T07:31:34.475Z,101322.75
2022-10-04T07:34:15.689Z,101321.47
2022-10-04T07:36:53.319Z,101327.84
2022-10-04T07:40:01.059Z,101321.03
2022-10-04T07:42:43.034Z,101323.81
2022-10-04T07:45:22.643Z,101331.91
2022-10-04T07:47:51.238Z,101326.91
2022-10-04T07:50:36.531Z,101333.03
2022-10-04T07:53:38.167Z,101335.81
2022-10-04T07:56:38.468Z,101337.13
2022-10-04T07:59:39.121Z,101346.50
2022-10-04T08:02:17.217Z,101330.97
2022-10-04T08:05:06.616Z,101337.34
2022-10-04T08:08:30.750Z,101344.00
2022-10-04T08:11:37.400Z,101342.94
2022-10-04T08:14:24.669Z,101336.22
2022-10-04T08:17:22.669Z,101327.56
2022-10-04T08:20:20.553Z,101335.50
2022-10-04T08:23:18.386Z,101325.66
2022-10-04T08:26:39.809Z,101323.25
2022-10-04T08:29:42.563Z,101326.91
2022-10-04T08:33:01.695Z,101324.81
2022-10-04T08:35:39.480Z,101321.50
2022-10-04T08:38:43.095Z,101324.03
2022-10-04T08:42:15.434Z,101322.34
2022-10-04T08:45:43.884Z,101327.16
2022-10-04T08:48:38.735Z,101325.28
2022-10-04T08:51:05.568Z,101318.72
2022-10-04T08:53:52.524Z,101325.91
2022-10-04T08:57:15.671Z,101327.22
2022-10-04T09:00:33.809Z,101315.63
2022-10-04T09:04:02.593Z,101318.88
2022-10-04T09:07:04.372Z,101307.31
2022-10-04T09:10:03.693Z,101313.38
2022-10-04T09:12:54.974Z,101317.16
2022-10-04T09:15:56.940Z,101316.59
2022-10-04T09:20:26.172Z,101315.00
2022-10-04T09:23:32.135Z,101324.56
2022-10-04T09:26:47.538Z,101323.53
2022-10-04T09:29:38.940Z,101332.41
2022-10-04T09:32:57.656Z,101319.94
2022-10-04T09:36:01.790Z,101321.16
2022-10-04T09:39:25.557Z,101314.88
2022-10-04T09:42:45.561Z,101320.53
2022-10-04T09:45:40.261Z,101317.69
2022-10-04T09:49:03.093Z,101314.28
2022-10-04T09:52:08.947Z,101306.88
2022-10-04T09:55:17.601Z,101307.91
2022-10-04T09:58:18.759Z,101304.16
2022-10-04T10:01:11.536Z,101310.94
2022-10-04T10:04:03.187Z,101308.91
2022-10-04T10:07:07.551Z,101308.22
2022-10-04T10:10:42.912Z,101299.03
2022-10-04T10:13:54.556Z,101298.69
2022-10-04T10:17:08.620Z,101298.13
2022-10-04T10:20:16.765Z,101299.75
2022-10-04T10:30:00.302Z,101299.59
2022-10-04T10:33:08.507Z,101295.03
2022-10-04T11:00:22.287Z,101298.63
2022-10-04T11:03:21.830Z,101289.31
2022-10-04T11:06:20.361Z,101285.81
2022-10-04T11:09:46.236Z,101287.59
2022-10-04T11:13:21.591Z,101287.19
2022-10-04T11:16:57.210Z,101267.34
2022-10-04T11:20:26.843Z,101257.56
2022-10-04T11:23:37.860Z,101260.81
2022-10-04T11:26:51.218Z,101260.38
2022-10-04T11:30:04.686Z,101258.56
2022-10-04T11:32:47.403Z,101253.72
2022-10-04T11:36:08.209Z,101250.31
2022-10-04T11:39:40.412Z,101252.94
2022-10-04T11:42:55.972Z,101249.25
2022-10-04T11:46:13.316Z,101252.53
2022-10-04T11:49:35.565Z,101251.75
2022-10-04T11:53:25.862Z,101245.25
2022-10-04T11:56:45.965Z,101239.06
2022-10-04T11:59:46.391Z,101238.22
2022-10-04T12:03:17.918Z,101229.66
2022-10-04T12:06:35.705Z,101223.44
2022-10-04T12:10:04.998Z,101213.47
2022-10-04T12:13:27.445Z,101200.84
2022-10-04T12:16:30.213Z,101212.28
2022-10-04T12:20:12.022Z,101209.09
2022-10-04T12:23:31.461Z,101206.88
2022-10-04T12:26:35.765Z,101195.69
2022-10-04T12:29:45.501Z,101202.91
2022-10-04T12:32:57.561Z,101194.38
2022-10-04T12:35:46.296Z,101198.56
2022-10-04T12:38:58.616Z,101190.50
2022-10-04T12:42:29.203Z,101190.88
2022-10-04T12:45:52.840Z,101192.28
2022-10-04T12:49:10.084Z,101190.44
2022-10-04T12:52:21.142Z,101189.22
2022-10-04T12:55:19.593Z,101187.69
2022-10-04T12:58:18.447Z,101181.31
2022-10-04T13:00:53.546Z,101185.41
2022-10-04T13:03:57.019Z,101189.44
2022-10-04T13:07:13.805Z,101197.38
2022-10-04T13:10:24.310Z,101201.78
2022-10-04T13:13:19.750Z,101199.81
2022-10-04T13:20:18.044Z,101189.72
2022-10-04T13:23:33.633Z,101162.81
2022-10-04T13:26:32.275Z,101167.19
2022-10-04T13:29:20.214Z,101162.00
2022-10-04T13:32:14.248Z,101163.78
2022-10-04T13:35:11.835Z,101159.88
2022-10-04T13:37:54.561Z,101152.75
2022-10-04T13:41:03.793Z,101150.47
2022-10-04T13:43:46.756Z,101148.09
2022-10-04T13:47:27.917Z,101133.41
2022-10-04T13:50:28.986Z,101130.88
2022-10-04T13:54:17.765Z,101127.09
2022-10-04T13:57:19.646Z,101124.44
2022-10-04T14:00:01.791Z,101132.47
2022-10-04T14:03:19.555Z,101116.41
2022-10-04T14:06:26.139Z,101130.31
2022-10-04T14:09:50.875Z,101119.03
2022-10-04T14:12:46.396Z,101107.44
2022-10-04T14:15:57.324Z,101097.78
2022-10-04T14:19:14.280Z,101095.56
2022-10-04T14:22:12.142Z,101092.91
2022-10-04T14:25:27.224Z,101073.78
2022-10-04T14:28:53.281Z,101080.91
2022-10-04T14:31:55.139Z,101075.75
2022-10-04T14:34:59.541Z,101086.28
2022-10-04T14:37:57.457Z,101089.66
2022-10-04T14:40:36.955Z,101092.53
2022-10-04T14:43:37.501Z,101092.88
2022-10-04T14:46:54.914Z,101085.81
2022-10-04T14:50:37.921Z,101085.81
2022-10-04T14:53:33.594Z,101079.03
2022-10-04T14:56:40.141Z,101083.16
2022-10-04T14:59:53.656Z,101090.91
2022-10-04T15:02:52.506Z,101085.06
2022-10-04T15:05:59.669Z,101088.75
2022-10-04T15:09:37.530Z,101083.66
2022-10-04T15:13:09.375Z,101081.03
2022-10-04T15:15:58.926Z,101093.00
2022-10-04T15:19:08.078Z,101088.88
2022-10-04T15:21:55.873Z,101080.88
2022-10-04T15:24:52.325Z,101088.69
2022-10-04T15:27:54.142Z,101074.09
2022-10-04T15:30:50.443Z,101085.97
2022-10-04T15:34:03.300Z,101090.88
2022-10-04T15:37:20.651Z,101064.88
2022-10-04T15:40:34.619Z,101050.16
2022-10-04T15:43:24.914Z,101050.19
2022-10-04T15:46:38.667Z,101046.16
2022-10-04T15:49:30.594Z,101046.91
2022-10-04T15:52:43.271Z,101033.72
2022-10-04T15:55:48.157Z,101025.03
2022-10-04T15:59:04.999Z,101025.63
2022-10-04T16:02:28.133Z,101025.66
2022-10-04T16:05:15.331Z,101022.25
2022-10-04T16:08:09.784Z,101016.16
2022-10-04T16:11:13.228Z,101019.75
2022-10-04T16:14:08.935Z,101029.41
2022-10-04T16:16:58.506Z,101023.66
2022-10-04T16:19:55.714Z,101026.88
2022-10-04T16:22:35.297Z,101028.44
2022-10-04T16:25:38.767Z,101024.53
2022-10-04T16:28:53.928Z,101022.66
2022-10-04T16:31:53.555Z,101026.88
2022-10-04T16:34:53.745Z,101027.22
2022-10-04T16:37:26.446Z,101020.78
2022-10-04T16:40:27.087Z,101020.59
2022-10-04T16:43:09.882Z,101014.84
2022-10-04T16:46:11.511Z,101016.03
2022-10-04T16:48:45.225Z,101030.44
2022-10-04T16:51:23.429Z,101017.38
2022-10-04T16:57:29.264Z,101012.28
2022-10-04T17:00:47.291Z,101004.63
2022-10-04T17:22:36.838Z,100998.91
2022-10-04T17:26:13.793Z,101001.13
2022-10-04T17:36:28.665Z,101007.38
2022-10-04T17:46:03.609Z,101005.88
2022-10-04T17:49:20.585Z,101003.00
2022-10-04T17:52:21.917Z,101009.22
2022-10-04T17:56:03.327Z,101007.69
2022-10-04T17:58:53.611Z,101019.31
2022-10-04T18:01:53.768Z,101012.69
2022-10-04T18:04:30.357Z,101015.09
2022-10-04T18:07:23.501Z,101018.31
2022-10-04T18:14:39.678Z,101025.94
2022-10-04T18:17:27.053Z,101006.97
2022-10-04T18:20:27.959Z,101005.44
2022-10-04T18:23:30.758Z,100999.81
2022-10-04T18:26:23.159Z,100983.06
2022-10-04T18:29:01.930Z,100977.81
2022-10-04T18:31:42.716Z,100973.94
2022-10-04T18:34:34.295Z,100960.94
2022-10-04T18:37:41.230Z,100947.91
2022-10-04T18:40:51.736Z,100950.09
2022-10-04T18:43:54.011Z,100936.88
2022-10-04T18:46:23.779Z,100937.91
2022-10-04T18:49:28.898Z,100943.84
2022-10-04T18:52:10.847Z,100956.03
2022-10-04T18:55:25.812Z,100969.75
2022-10-04T18:58:41.106Z,100989.88
2022-10-04T19:02:06.992Z,100999.31
2022-10-04T19:05:09.553Z,100983.09
2022-10-04T19:08:07.879Z,101004.13
2022-10-04T19:11:03.439Z,100997.31
2022-10-04T19:14:10.725Z,101012.59
2022-10-04T19:17:05.139Z,101002.94
2022-10-04T19:20:08.820Z,100998.34
2022-10-04T19:23:33.656Z,100998.66
2022-10-04T19:26:33.856Z,100988.63
2022-10-04T19:29:45.830Z,100969.00
2022-10-04T19:32:56.975Z,100967.31
2022-10-04T19:36:06.877Z,100972.72
2022-10-04T19:39:27.234Z,100988.91
2022-10-04T19:42:20.005Z,100995.13
2022-10-04T19:45:21.540Z,100996.59
2022-10-04T19:48:08.959Z,101003.34
2022-10-04T19:51:02.856Z,101004.03
2022-10-04T19:53:37.441Z,101009.44
2022-10-04T19:56:22.293Z,100999.09
2022-10-04T19:59:50.918Z,100997.22
2022-10-04T20:02:18.765Z,100980.47
2022-10-04T20:04:49.604Z,100979.81
2022-10-04T20:07:28.170Z,100981.38
2022-10-04T20:10:38.977Z,100984.09
2022-10-04T20:13:25.409Z,100986.63
2022-10-04T20:16:01.248Z,100979.38
2022-10-04T20:18:33.990Z,100976.84
2022-10-04T20:21:01.165Z,100976.84
2022-10-04T20:23:47.871Z,100974.84
2022-10-04T20:26:56.254Z,100974.84
2022-10-04T20:29:46.702Z,100974.84
2022-10-04T20:32:37.622Z,100969.41
2022-10-04T20:35:13.364Z,100966.03
2022-10-04T20:38:13.912Z,100963.03
2022-10-04T20:40:49.232Z,100948.09
2022-10-04T20:43:16.570Z,100952.81
2022-10-04T20:45:58.881Z,100954.69
2022-10-04T20:48:34.259Z,100955.69
2022-10-04T20:51:10.987Z,100945.88
2022-10-04T20:53:46.996Z,100962.66
2022-10-04T20:56:27.018Z,100962.19
2022-10-04T20:59:02.756Z,100949.00
2022-10-04T21:01:36.769Z,100936.31
2022-10-04T21:04:48.346Z,100924.00
2022-10-04T21:07:27.013Z,100929.94
2022-10-04T21:10:15.695Z,100929.28
2022-10-04T21:12:44.593Z,100939.56
2022-10-04T21:15:17.355Z,100927.06
2022-10-04T21:18:12.336Z,100937.34
2022-10-04T21:20:50.894Z,100945.69
2022-10-04T21:23:30.424Z,100954.50
2022-10-04T21:26:26.248Z,100955.03
2022-10-04T21:28:59.675Z,100957.75
2022-10-04T21:31:26.625Z,100943.72
2022-10-04T21:33:53.661Z,100945.78
2022-10-04T21:36:20.602Z,100940.19
2022-10-04T21:38:47.344Z,100945.44
2022-10-04T21:41:14.208Z,100938.84
2022-10-04T21:43:40.997Z,100941.22
2022-10-04T21:46:07.871Z,100941.41
2022-10-04T21:48:34.865Z,100931.25
2022-10-04T21:51:01.656Z,100917.03
2022-10-04T21:53:28.666Z,100928.16
2022-10-04T21:55:55.463Z,100917.34
2022-10-04T21:58:22.197Z,100928.00
2022-10-04T22:00:49.356Z,100921.91
2022-10-04T22:03:16.201Z,100926.34
2022-10-04T22:05:45.700Z,100927.31
2022-10-04T22:08:12.464Z,100924.47
2022-10-04T22:10:40.153Z,100926.16
2022-10-04T22:13:08.249Z,100913.09
2022-10-04T22:15:35.844Z,100914.63
2022-10-04T22:18:02.615Z,100910.94
2022-10-04T22:20:30.516Z,100911.75
2022-10-04T22:22:59.123Z,100898.38
2022-10-04T22:25:33.195Z,100906.69
2022-10-04T22:28:00.399Z,100897.69
2022-10-04T22:30:31.257Z,100896.69
2022-10-04T22:33:01.975Z,100880.41
2022-10-04T22:35:31.995Z,100877.50
2022-10-04T22:38:00.102Z,100873.28
2022-10-04T22:40:29.230Z,100874.78
2022-10-04T22:43:00.692Z,100877.81
2022-10-04T22:45:33.530Z,100871.88
2022-10-04T22:48:11.888Z,100868.84
2022-10-04T22:50:39.571Z,100873.25
2022-10-04T22:53:19.545Z,100871.22
2022-10-04T22:55:52.735Z,100873.25
2022-10-04T22:58:21.151Z,100861.06
2022-10-04T23:00:50.027Z,100867.03
2022-10-04T23:03:32.730Z,100858.91
2022-10-04T23:06:02.944Z,100873.63
2022-10-04T23:08:35.429Z,100859.09
2022-10-04T23:11:02.434Z,100867.06
2022-10-04T23:13:29.309Z,100865.69
2022-10-04T23:16:06.787Z,100870.09
2022-10-04T23:18:35.993Z,100871.63
2022-10-04T23:21:19.610Z,100866.06
2022-10-04T23:23:48.425Z,100867.59
2022-10-04T23:26:37.292Z,100865.72
2022-10-04T23:29:34.633Z,100863.16
2022-10-04T23:32:18.351Z,100856.06
2022-10-04T23:34:56.275Z,100852.69
2022-10-04T23:37:32.416Z,100848.78
2022-10-04T23:39:59.874Z,100856.72
2022-10-04T23:42:33.435Z,100852.84
2022-10-04T23:45:02.629Z,100849.28
2022-10-04T23:47:36.299Z,100842.19
2022-10-04T23:50:25.446Z,100842.88
2022-10-04T23:53:02.237Z,100847.59
2022-10-04T23:55:36.106Z,100838.63
2022-10-04T23:58:20.395Z,100843.72
